sensor_id;sensor_type;location;lat;lon;timestamp;P1;durP1;ratioP1;P2;durP2;ratioP2
735;SDS011;352;48.626;9.238;2023-04-01T00:00:59;2.08;;;1.05;;
735;SDS011;352;48.626;9.238;2023-04-01T00:03:27;1.77;;;1.00;;
735;SDS011;352;48.626;9.238;2023-04-01T00:05:54;1.10;;;0.88;;
735;SDS011;352;48.626;9.238;2023-04-01T00:08:21;1.67;;;1.05;;
735;SDS011;352;48.626;9.238;2023-04-01T00:10:48;1.35;;;0.80;;
735;SDS011;352;48.626;9.238;2023-04-01T00:13:15;1.35;;;0.80;;
735;SDS011;352;48.626;9.238;2023-04-01T00:15:43;1.70;;;0.77;;
735;SDS011;352;48.626;9.238;2023-04-01T00:18:11;4.72;;;1.02;;
735;SDS011;352;48.626;9.238;2023-04-01T00:20:38;0.95;;;0.80;;
735;SDS011;352;48.626;9.238;2023-04-01T00:23:05;1.52;;;0.90;;
735;SDS011;352;48.626;9.238;2023-04-01T00:25:31;1.33;;;0.80;;
735;SDS011;352;48.626;9.238;2023-04-01T00:27:58;2.60;;;1.02;;
735;SDS011;352;48.626;9.238;2023-04-01T00:30:25;1.98;;;0.88;;
735;SDS011;352;48.626;9.238;2023-04-01T00:32:53;3.20;;;0.77;;
735;SDS011;352;48.626;9.238;2023-04-01T00:35:20;2.75;;;1.08;;
735;SDS011;352;48.626;9.238;2023-04-01T00:37:47;1.30;;;1.00;;
735;SDS011;352;48.626;9.238;2023-04-01T00:40:21;1.33;;;0.82;;
735;SDS011;352;48.626;9.238;2023-04-01T00:42:52;1.05;;;0.80;;
735;SDS011;352;48.626;9.238;2023-04-01T00:45:23;1.38;;;0.85;;
735;SDS011;352;48.626;9.238;2023-04-01T00:47:54;2.20;;;0.80;;
735;SDS011;352;48.626;9.238;2023-04-01T00:50:21;2.50;;;1.15;;
735;SDS011;352;48.626;9.238;2023-04-01T00:52:50;2.65;;;0.95;;
735;SDS011;352;48.626;9.238;2023-04-01T00:55:18;2.38;;;0.80;;
735;SDS011;352;48.626;9.238;2023-04-01T00:57:46;1.60;;;0.70;;
735;SDS011;352;48.626;9.238;2023-04-01T01:00:14;1.20;;;0.60;;
735;SDS011;352;48.626;9.238;2023-04-01T01:02:44;1.30;;;0.82;;
735;SDS011;352;48.626;9.238;2023-04-01T01:05:13;0.60;;;0.50;;
735;SDS011;352;48.626;9.238;2023-04-01T01:07:42;3.22;;;0.90;;
735;SDS011;352;48.626;9.238;2023-04-01T01:10:14;2.10;;;0.93;;
735;SDS011;352;48.626;9.238;2023-04-01T01:12:44;1.48;;;0.63;;
735;SDS011;352;48.626;9.238;2023-04-01T01:15:15;2.55;;;0.90;;
735;SDS011;352;48.626;9.238;2023-04-01T01:17:49;2.35;;;0.88;;
735;SDS011;352;48.626;9.238;2023-04-01T01:26:38;3.75;;;1.05;;
735;SDS011;352;48.626;9.238;2023-04-01T01:29:34;1.70;;;0.70;;
735;SDS011;352;48.626;9.238;2023-04-01T01:32:31;1.02;;;0.50;;
735;SDS011;352;48.626;9.238;2023-04-01T01:35:15;0.70;;;0.70;;
735;SDS011;352;48.626;9.238;2023-04-01T01:37:46;1.08;;;0.82;;
735;SDS011;352;48.626;9.238;2023-04-01T01:40:15;1.20;;;0.70;;
735;SDS011;352;48.626;9.238;2023-04-01T01:42:45;1.15;;;0.80;;
735;SDS011;352;48.626;9.238;2023-04-01T01:45:14;1.35;;;0.70;;
735;SDS011;352;48.626;9.238;2023-04-01T01:47:44;1.05;;;0.50;;
735;SDS011;352;48.626;9.238;2023-04-01T01:50:12;0.80;;;0.60;;
735;SDS011;352;48.626;9.238;2023-04-01T01:52:42;1.33;;;0.70;;
735;SDS011;352;48.626;9.238;2023-04-01T01:55:23;1.45;;;0.80;;
735;SDS011;352;48.626;9.238;2023-04-01T01:57:52;3.80;;;0.80;;
735;SDS011;352;48.626;9.238;2023-04-01T02:00:20;1.48;;;0.70;;
735;SDS011;352;48.626;9.238;2023-04-01T02:02:47;2.05;;;0.60;;
735;SDS011;352;48.626;9.238;2023-04-01T02:05:16;1.92;;;0.70;;
735;SDS011;352;48.626;9.238;2023-04-01T02:07:48;1.55;;;0.70;;
735;SDS011;352;48.626;9.238;2023-04-01T02:10:19;1.58;;;0.68;;
735;SDS011;352;48.626;9.238;2023-04-01T02:12:48;1.25;;;0.70;;
735;SDS011;352;48.626;9.238;2023-04-01T02:15:17;2.83;;;0.85;;
735;SDS011;352;48.626;9.238;2023-04-01T02:17:47;2.65;;;0.60;;
735;SDS011;352;48.626;9.238;2023-04-01T02:20:18;0.80;;;0.70;;
735;SDS011;352;48.626;9.238;2023-04-01T02:22:49;0.90;;;0.60;;
735;SDS011;352;48.626;9.238;2023-04-01T02:25:19;1.00;;;0.60;;
735;SDS011;352;48.626;9.238;2023-04-01T02:27:48;0.82;;;0.60;;
735;SDS011;352;48.626;9.238;2023-04-01T02:30:16;3.55;;;0.65;;
735;SDS011;352;48.626;9.238;2023-04-01T02:32:43;0.50;;;0.50;;
735;SDS011;352;48.626;9.238;2023-04-01T02:35:11;1.40;;;0.60;;
735;SDS011;352;48.626;9.238;2023-04-01T02:37:41;0.55;;;0.55;;
735;SDS011;352;48.626;9.238;2023-04-01T02:40:11;1.20;;;0.50;;
735;SDS011;352;48.626;9.238;2023-04-01T02:42:39;1.08;;;1.00;;
735;SDS011;352;48.626;9.238;2023-04-01T02:45:06;1.40;;;0.60;;
735;SDS011;352;48.626;9.238;2023-04-01T02:47:34;1.10;;;1.00;;
735;SDS011;352;48.626;9.238;2023-04-01T02:50:01;0.63;;;0.50;;
735;SDS011;352;48.626;9.238;2023-04-01T02:52:28;1.08;;;0.70;;
735;SDS011;352;48.626;9.238;2023-04-01T02:54:55;0.88;;;0.60;;
735;SDS011;352;48.626;9.238;2023-04-01T02:57:24;2.80;;;0.60;;
735;SDS011;352;48.626;9.238;2023-04-01T02:59:51;0.77;;;0.75;;
735;SDS011;352;48.626;9.238;2023-04-01T03:02:17;0.57;;;0.57;;
735;SDS011;352;48.626;9.238;2023-04-01T03:04:44;1.20;;;0.60;;
735;SDS011;352;48.626;9.238;2023-04-01T03:07:11;1.35;;;0.55;;
735;SDS011;352;48.626;9.238;2023-04-01T03:09:37;1.08;;;0.50;;
735;SDS011;352;48.626;9.238;2023-04-01T03:12:06;0.98;;;0.60;;
735;SDS011;352;48.626;9.238;2023-04-01T03:14:34;1.60;;;0.60;;
735;SDS011;352;48.626;9.238;2023-04-01T03:17:00;2.28;;;0.60;;
735;SDS011;352;48.626;9.238;2023-04-01T03:19:27;1.05;;;0.70;;
735;SDS011;352;48.626;9.238;2023-04-01T03:21:54;1.60;;;0.70;;
735;SDS011;352;48.626;9.238;2023-04-01T03:24:21;0.95;;;0.55;;
735;SDS011;352;48.626;9.238;2023-04-01T03:26:47;0.55;;;0.55;;
735;SDS011;352;48.626;9.238;2023-04-01T03:29:14;0.85;;;0.65;;
735;SDS011;352;48.626;9.238;2023-04-01T03:31:42;1.00;;;0.60;;
735;SDS011;352;48.626;9.238;2023-04-01T03:34:09;0.70;;;0.70;;
735;SDS011;352;48.626;9.238;2023-04-01T03:36:36;0.60;;;0.60;;
735;SDS011;352;48.626;9.238;2023-04-01T03:39:03;0.55;;;0.55;;
735;SDS011;352;48.626;9.238;2023-04-01T03:41:30;0.77;;;0.63;;
735;SDS011;352;48.626;9.238;2023-04-01T03:43:58;0.95;;;0.70;;
735;SDS011;352;48.626;9.238;2023-04-01T03:46:25;2.75;;;0.52;;
735;SDS011;352;48.626;9.238;2023-04-01T03:48:53;0.50;;;0.50;;
735;SDS011;352;48.626;9.238;2023-04-01T03:51:19;0.70;;;0.70;;
735;SDS011;352;48.626;9.238;2023-04-01T03:53:46;1.25;;;0.60;;
735;SDS011;352;48.626;9.238;2023-04-01T03:56:14;1.30;;;0.70;;
735;SDS011;352;48.626;9.238;2023-04-01T03:58:41;2.22;;;0.60;;
735;SDS011;352;48.626;9.238;2023-04-01T04:01:14;0.60;;;0.60;;
735;SDS011;352;48.626;9.238;2023-04-01T04:03:45;0.80;;;0.70;;
735;SDS011;352;48.626;9.238;2023-04-01T04:06:16;2.55;;;0.70;;
735;SDS011;352;48.626;9.238;2023-04-01T04:08:43;0.88;;;0.50;;
735;SDS011;352;48.626;9.238;2023-04-01T04:11:10;0.50;;;0.50;;
735;SDS011;352;48.626;9.238;2023-04-01T04:13:37;0.80;;;0.80;;
735;SDS011;352;48.626;9.238;2023-04-01T04:16:04;2.45;;;1.00;;
735;SDS011;352;48.626;9.238;2023-04-01T04:18:31;2.15;;;0.93;;
735;SDS011;352;48.626;9.238;2023-04-01T04:20:57;1.23;;;1.13;;
735;SDS011;352;48.626;9.238;2023-04-01T04:23:25;1.67;;;1.00;;
735;SDS011;352;48.626;9.238;2023-04-01T04:25:54;1.13;;;1.10;;
735;SDS011;352;48.626;9.238;2023-04-01T04:28:21;1.30;;;1.20;;
735;SDS011;352;48.626;9.238;2023-04-01T04:30:48;0.80;;;0.80;;
735;SDS011;352;48.626;9.238;2023-04-01T04:33:15;1.70;;;1.10;;
735;SDS011;352;48.626;9.238;2023-04-01T04:35:42;1.15;;;1.05;;
735;SDS011;352;48.626;9.238;2023-04-01T04:38:08;1.85;;;1.02;;
735;SDS011;352;48.626;9.238;2023-04-01T04:40:38;1.00;;;0.88;;
735;SDS011;352;48.626;9.238;2023-04-01T04:43:05;0.80;;;0.80;;
735;SDS011;352;48.626;9.238;2023-04-01T04:45:32;1.65;;;1.00;;
735;SDS011;352;48.626;9.238;2023-04-01T04:47:58;0.80;;;0.80;;
735;SDS011;352;48.626;9.238;2023-04-01T04:50:25;0.80;;;0.80;;
735;SDS011;352;48.626;9.238;2023-04-01T04:52:52;3.30;;;1.50;;
735;SDS011;352;48.626;9.238;2023-04-01T04:55:19;0.98;;;0.80;;
735;SDS011;352;48.626;9.238;2023-04-01T04:57:47;1.23;;;0.90;;
735;SDS011;352;48.626;9.238;2023-04-01T05:00:14;1.58;;;0.82;;
735;SDS011;352;48.626;9.238;2023-04-01T05:02:41;2.65;;;1.10;;
735;SDS011;352;48.626;9.238;2023-04-01T05:05:08;2.60;;;1.00;;
735;SDS011;352;48.626;9.238;2023-04-01T05:07:35;1.65;;;0.90;;
735;SDS011;352;48.626;9.238;2023-04-01T05:10:02;1.00;;;0.90;;
735;SDS011;352;48.626;9.238;2023-04-01T05:12:29;0.90;;;0.80;;
735;SDS011;352;48.626;9.238;2023-04-01T05:14:59;1.13;;;0.70;;
735;SDS011;352;48.626;9.238;2023-04-01T05:17:25;0.70;;;0.70;;
735;SDS011;352;48.626;9.238;2023-04-01T05:19:52;2.65;;;0.85;;
735;SDS011;352;48.626;9.238;2023-04-01T05:22:19;2.22;;;1.00;;
735;SDS011;352;48.626;9.238;2023-04-01T05:24:45;3.95;;;1.10;;
735;SDS011;352;48.626;9.238;2023-04-01T05:27:12;1.10;;;1.00;;
735;SDS011;352;48.626;9.238;2023-04-01T05:29:39;0.88;;;0.88;;
735;SDS011;352;48.626;9.238;2023-04-01T05:32:07;0.90;;;0.90;;
735;SDS011;352;48.626;9.238;2023-04-01T05:34:34;1.10;;;1.00;;
735;SDS011;352;48.626;9.238;2023-04-01T05:37:00;1.02;;;0.90;;
735;SDS011;352;48.626;9.238;2023-04-01T05:39:27;1.55;;;1.10;;
735;SDS011;352;48.626;9.238;2023-04-01T05:41:54;1.35;;;1.25;;
735;SDS011;352;48.626;9.238;2023-04-01T05:44:21;1.10;;;1.10;;
735;SDS011;352;48.626;9.238;2023-04-01T05:46:47;1.10;;;1.00;;
735;SDS011;352;48.626;9.238;2023-04-01T05:49:15;1.30;;;1.20;;
735;SDS011;352;48.626;9.238;2023-04-01T05:51:42;1.25;;;0.90;;
735;SDS011;352;48.626;9.238;2023-04-01T05:54:09;1.73;;;1.40;;
735;SDS011;352;48.626;9.238;2023-04-01T05:56:35;2.38;;;1.48;;
735;SDS011;352;48.626;9.238;2023-04-01T05:59:02;1.15;;;1.00;;
735;SDS011;352;48.626;9.238;2023-04-01T06:01:29;1.67;;;0.82;;
735;SDS011;352;48.626;9.238;2023-04-01T06:03:56;1.67;;;0.82;;
735;SDS011;352;48.626;9.238;2023-04-01T06:06:25;0.70;;;0.70;;
735;SDS011;352;48.626;9.238;2023-04-01T06:08:53;0.80;;;0.80;;
735;SDS011;352;48.626;9.238;2023-04-01T06:11:26;1.00;;;0.88;;
735;SDS011;352;48.626;9.238;2023-04-01T06:14:04;1.27;;;1.10;;
735;SDS011;352;48.626;9.238;2023-04-01T06:16:45;0.95;;;0.88;;
735;SDS011;352;48.626;9.238;2023-04-01T06:19:24;1.83;;;0.95;;
735;SDS011;352;48.626;9.238;2023-04-01T06:22:12;1.80;;;0.90;;
735;SDS011;352;48.626;9.238;2023-04-01T06:25:00;1.20;;;1.10;;
735;SDS011;352;48.626;9.238;2023-04-01T06:27:50;2.30;;;1.07;;
735;SDS011;352;48.626;9.238;2023-04-01T06:30:41;1.45;;;1.27;;
735;SDS011;352;48.626;9.238;2023-04-01T06:33:14;1.63;;;1.10;;
735;SDS011;352;48.626;9.238;2023-04-01T06:36:06;1.67;;;1.10;;
735;SDS011;352;48.626;9.238;2023-04-01T06:38:53;2.03;;;1.00;;
735;SDS011;352;48.626;9.238;2023-04-01T06:41:37;2.07;;;0.97;;
735;SDS011;352;48.626;9.238;2023-04-01T06:44:23;1.00;;;0.80;;
735;SDS011;352;48.626;9.238;2023-04-01T06:47:01;1.02;;;0.90;;
735;SDS011;352;48.626;9.238;2023-04-01T06:49:41;1.63;;;1.00;;
735;SDS011;352;48.626;9.238;2023-04-01T06:52:17;0.90;;;0.90;;
735;SDS011;352;48.626;9.238;2023-04-01T06:54:51;1.20;;;1.10;;
735;SDS011;352;48.626;9.238;2023-04-01T06:57:23;0.82;;;0.82;;
735;SDS011;352;48.626;9.238;2023-04-01T06:59:55;1.20;;;1.10;;
735;SDS011;352;48.626;9.238;2023-04-01T07:02:25;0.80;;;0.80;;
735;SDS011;352;48.626;9.238;2023-04-01T07:04:59;2.40;;;1.10;;
735;SDS011;352;48.626;9.238;2023-04-01T07:07:29;5.10;;;1.00;;
735;SDS011;352;48.626;9.238;2023-04-01T07:10:02;0.80;;;0.80;;
735;SDS011;352;48.626;9.238;2023-04-01T07:12:33;0.90;;;0.80;;
735;SDS011;352;48.626;9.238;2023-04-01T07:15:12;0.80;;;0.80;;
735;SDS011;352;48.626;9.238;2023-04-01T07:17:43;1.48;;;0.82;;
735;SDS011;352;48.626;9.238;2023-04-01T07:20:13;1.03;;;0.90;;
735;SDS011;352;48.626;9.238;2023-04-01T07:22:46;1.60;;;1.10;;
735;SDS011;352;48.626;9.238;2023-04-01T07:25:17;0.80;;;0.80;;
735;SDS011;352;48.626;9.238;2023-04-01T07:27:46;1.03;;;0.80;;
735;SDS011;352;48.626;9.238;2023-04-01T07:30:13;1.13;;;1.07;;
735;SDS011;352;48.626;9.238;2023-04-01T07:32:42;2.17;;;0.90;;
735;SDS011;352;48.626;9.238;2023-04-01T07:35:17;1.80;;;0.90;;
735;SDS011;352;48.626;9.238;2023-04-01T07:37:57;1.17;;;1.00;;
735;SDS011;352;48.626;9.238;2023-04-01T07:40:36;1.30;;;0.90;;
735;SDS011;352;48.626;9.238;2023-04-01T07:43:12;1.30;;;1.20;;
735;SDS011;352;48.626;9.238;2023-04-01T07:45:57;1.10;;;1.07;;
735;SDS011;352;48.626;9.238;2023-04-01T07:48:35;1.70;;;1.60;;
735;SDS011;352;48.626;9.238;2023-04-01T07:51:08;1.30;;;1.20;;
735;SDS011;352;48.626;9.238;2023-04-01T07:53:42;1.05;;;0.98;;
735;SDS011;352;48.626;9.238;2023-04-01T07:56:14;3.05;;;1.42;;
735;SDS011;352;48.626;9.238;2023-04-01T07:58:50;1.80;;;1.50;;
735;SDS011;352;48.626;9.238;2023-04-01T08:01:23;4.80;;;1.10;;
735;SDS011;352;48.626;9.238;2023-04-01T08:04:07;0.90;;;0.90;;
735;SDS011;352;48.626;9.238;2023-04-01T08:06:50;3.33;;;1.27;;
735;SDS011;352;48.626;9.238;2023-04-01T08:09:24;1.95;;;1.17;;
735;SDS011;352;48.626;9.238;2023-04-01T08:12:01;1.73;;;1.20;;
735;SDS011;352;48.626;9.238;2023-04-01T08:14:39;1.27;;;1.17;;
735;SDS011;352;48.626;9.238;2023-04-01T08:17:19;2.47;;;1.10;;
735;SDS011;352;48.626;9.238;2023-04-01T08:19:56;1.87;;;1.10;;
735;SDS011;352;48.626;9.238;2023-04-01T08:22:36;1.20;;;0.97;;
735;SDS011;352;48.626;9.238;2023-04-01T08:25:09;1.00;;;1.00;;
735;SDS011;352;48.626;9.238;2023-04-01T08:27:41;2.20;;;1.00;;
735;SDS011;352;48.626;9.238;2023-04-01T08:30:15;1.93;;;1.10;;
735;SDS011;352;48.626;9.238;2023-04-01T08:32:44;3.23;;;1.10;;
735;SDS011;352;48.626;9.238;2023-04-01T08:35:18;1.70;;;1.57;;
735;SDS011;352;48.626;9.238;2023-04-01T08:37:52;1.70;;;1.07;;
735;SDS011;352;48.626;9.238;2023-04-01T08:43:21;3.17;;;1.00;;
735;SDS011;352;48.626;9.238;2023-04-01T08:46:27;5.77;;;1.20;;
735;SDS011;352;48.626;9.238;2023-04-01T08:49:14;1.23;;;0.93;;
735;SDS011;352;48.626;9.238;2023-04-01T08:54:58;1.03;;;0.90;;
735;SDS011;352;48.626;9.238;2023-04-01T08:57:50;1.20;;;1.10;;
735;SDS011;352;48.626;9.238;2023-04-01T09:00:31;1.25;;;0.98;;
735;SDS011;352;48.626;9.238;2023-04-01T09:03:13;1.23;;;0.93;;
735;SDS011;352;48.626;9.238;2023-04-01T09:06:06;3.40;;;1.00;;
735;SDS011;352;48.626;9.238;2023-04-01T09:08:52;0.80;;;0.80;;
735;SDS011;352;48.626;9.238;2023-04-01T09:11:44;1.03;;;0.77;;
735;SDS011;352;48.626;9.238;2023-04-01T09:14:42;1.33;;;0.60;;
735;SDS011;352;48.626;9.238;2023-04-01T09:17:29;1.13;;;0.70;;
735;SDS011;352;48.626;9.238;2023-04-01T09:20:18;0.90;;;0.80;;
735;SDS011;352;48.626;9.238;2023-04-01T09:23:05;1.53;;;0.80;;
735;SDS011;352;48.626;9.238;2023-04-01T09:25:58;1.43;;;0.80;;
735;SDS011;352;48.626;9.238;2023-04-01T09:28:41;0.80;;;0.70;;
735;SDS011;352;48.626;9.238;2023-04-01T09:31:22;0.80;;;0.80;;
735;SDS011;352;48.626;9.238;2023-04-01T09:34:17;2.20;;;0.70;;
735;SDS011;352;48.626;9.238;2023-04-01T09:36:54;1.33;;;0.87;;
735;SDS011;352;48.626;9.238;2023-04-01T09:39:41;0.90;;;0.67;;
735;SDS011;352;48.626;9.238;2023-04-01T09:42:21;1.37;;;1.00;;
735;SDS011;352;48.626;9.238;2023-04-01T09:45:04;1.10;;;0.87;;
735;SDS011;352;48.626;9.238;2023-04-01T09:47:42;1.00;;;0.90;;
735;SDS011;352;48.626;9.238;2023-04-01T09:53:09;1.03;;;0.70;;
735;SDS011;352;48.626;9.238;2023-04-01T10:02:04;0.70;;;0.70;;
735;SDS011;352;48.626;9.238;2023-04-01T10:05:04;3.07;;;0.93;;
735;SDS011;352;48.626;9.238;2023-04-01T10:10:51;1.83;;;0.97;;
735;SDS011;352;48.626;9.238;2023-04-01T10:13:38;0.57;;;0.57;;
735;SDS011;352;48.626;9.238;2023-04-01T10:16:40;0.60;;;0.60;;
735;SDS011;352;48.626;9.238;2023-04-01T10:25:30;1.17;;;0.70;;
735;SDS011;352;48.626;9.238;2023-04-01T10:37:15;0.77;;;0.70;;
735;SDS011;352;48.626;9.238;2023-04-01T10:40:17;1.60;;;0.70;;
735;SDS011;352;48.626;9.238;2023-04-01T10:49:29;0.60;;;0.60;;
735;SDS011;352;48.626;9.238;2023-04-01T10:52:22;1.13;;;0.60;;
735;SDS011;352;48.626;9.238;2023-04-01T10:58:25;0.60;;;0.57;;
735;SDS011;352;48.626;9.238;2023-04-01T11:01:22;1.20;;;1.10;;
735;SDS011;352;48.626;9.238;2023-04-01T11:10:14;1.30;;;0.50;;
735;SDS011;352;48.626;9.238;2023-04-01T11:13:12;0.50;;;0.50;;
735;SDS011;352;48.626;9.238;2023-04-01T11:16:18;0.70;;;0.60;;
735;SDS011;352;48.626;9.238;2023-04-01T11:19:14;2.50;;;0.70;;
735;SDS011;352;48.626;9.238;2023-04-01T11:22:14;1.33;;;0.70;;
735;SDS011;352;48.626;9.238;2023-04-01T11:31:15;0.87;;;0.80;;
735;SDS011;352;48.626;9.238;2023-04-01T11:33:50;0.60;;;0.60;;
735;SDS011;352;48.626;9.238;2023-04-01T11:36:25;1.27;;;0.70;;
735;SDS011;352;48.626;9.238;2023-04-01T11:39:05;0.60;;;0.50;;
735;SDS011;352;48.626;9.238;2023-04-01T11:41:49;0.60;;;0.60;;
735;SDS011;352;48.626;9.238;2023-04-01T11:44:23;1.47;;;0.90;;
735;SDS011;352;48.626;9.238;2023-04-01T11:46:56;1.43;;;0.80;;
735;SDS011;352;48.626;9.238;2023-04-01T11:49:37;0.87;;;0.70;;
735;SDS011;352;48.626;9.238;2023-04-01T11:52:18;1.27;;;0.70;;
735;SDS011;352;48.626;9.238;2023-04-01T11:55:03;0.60;;;0.60;;
735;SDS011;352;48.626;9.238;2023-04-01T11:57:48;1.07;;;0.60;;
735;SDS011;352;48.626;9.238;2023-04-01T12:00:35;1.20;;;0.57;;
735;SDS011;352;48.626;9.238;2023-04-01T12:06:08;0.93;;;0.80;;
735;SDS011;352;48.626;9.238;2023-04-01T12:08:44;0.83;;;0.80;;
735;SDS011;352;48.626;9.238;2023-04-01T12:11:21;0.70;;;0.70;;
735;SDS011;352;48.626;9.238;2023-04-01T12:13:56;1.57;;;0.83;;
735;SDS011;352;48.626;9.238;2023-04-01T12:16:35;1.20;;;0.50;;
735;SDS011;352;48.626;9.238;2023-04-01T12:19:14;0.70;;;0.70;;
735;SDS011;352;48.626;9.238;2023-04-01T12:21:50;1.37;;;0.70;;
735;SDS011;352;48.626;9.238;2023-04-01T12:24:41;0.70;;;0.63;;
735;SDS011;352;48.626;9.238;2023-04-01T12:33:23;0.60;;;0.60;;
735;SDS011;352;48.626;9.238;2023-04-01T12:36:19;2.40;;;0.77;;
735;SDS011;352;48.626;9.238;2023-04-01T12:39:00;1.00;;;0.50;;
735;SDS011;352;48.626;9.238;2023-04-01T12:41:46;0.70;;;0.50;;
735;SDS011;352;48.626;9.238;2023-04-01T12:44:26;0.53;;;0.53;;
735;SDS011;352;48.626;9.238;2023-04-01T12:47:11;0.97;;;0.60;;
735;SDS011;352;48.626;9.238;2023-04-01T12:49:56;0.90;;;0.60;;
735;SDS011;352;48.626;9.238;2023-04-01T12:52:50;0.80;;;0.53;;
735;SDS011;352;48.626;9.238;2023-04-01T12:55:36;0.60;;;0.60;;
735;SDS011;352;48.626;9.238;2023-04-01T12:58:18;0.90;;;0.70;;
735;SDS011;352;48.626;9.238;2023-04-01T13:01:10;1.00;;;0.57;;
735;SDS011;352;48.626;9.238;2023-04-01T13:04:16;1.03;;;0.60;;
735;SDS011;352;48.626;9.238;2023-04-01T13:07:06;0.50;;;0.50;;
735;SDS011;352;48.626;9.238;2023-04-01T13:09:45;0.60;;;0.60;;
735;SDS011;352;48.626;9.238;2023-04-01T13:15:21;0.70;;;0.60;;
735;SDS011;352;48.626;9.238;2023-04-01T13:17:58;0.67;;;0.67;;
735;SDS011;352;48.626;9.238;2023-04-01T13:20:43;0.70;;;0.70;;
735;SDS011;352;48.626;9.238;2023-04-01T13:23:18;0.70;;;0.50;;
735;SDS011;352;48.626;9.238;2023-04-01T13:25:57;0.67;;;0.67;;
735;SDS011;352;48.626;9.238;2023-04-01T13:28:34;1.37;;;0.60;;
735;SDS011;352;48.626;9.238;2023-04-01T13:31:07;0.80;;;0.60;;
735;SDS011;352;48.626;9.238;2023-04-01T13:33:55;0.70;;;0.70;;
735;SDS011;352;48.626;9.238;2023-04-01T13:36:34;0.70;;;0.70;;
735;SDS011;352;48.626;9.238;2023-04-01T13:39:33;0.90;;;0.80;;
735;SDS011;352;48.626;9.238;2023-04-01T13:42:13;0.87;;;0.87;;
735;SDS011;352;48.626;9.238;2023-04-01T13:44:48;1.00;;;1.00;;
735;SDS011;352;48.626;9.238;2023-04-01T13:47:24;0.70;;;0.70;;
735;SDS011;352;48.626;9.238;2023-04-01T13:50:17;1.40;;;1.20;;
735;SDS011;352;48.626;9.238;2023-04-01T13:56:18;0.90;;;0.73;;
735;SDS011;352;48.626;9.238;2023-04-01T13:59:02;0.93;;;0.93;;
735;SDS011;352;48.626;9.238;2023-04-01T14:01:39;1.57;;;1.07;;
735;SDS011;352;48.626;9.238;2023-04-01T14:04:30;1.63;;;1.10;;
735;SDS011;352;48.626;9.238;2023-04-01T14:07:09;0.70;;;0.70;;
735;SDS011;352;48.626;9.238;2023-04-01T14:09:50;1.90;;;1.07;;
735;SDS011;352;48.626;9.238;2023-04-01T14:12:31;1.00;;;0.80;;
735;SDS011;352;48.626;9.238;2023-04-01T14:15:07;1.73;;;0.80;;
735;SDS011;352;48.626;9.238;2023-04-01T14:17:51;0.70;;;0.70;;
735;SDS011;352;48.626;9.238;2023-04-01T14:20:27;0.70;;;0.70;;
735;SDS011;352;48.626;9.238;2023-04-01T14:23:09;1.00;;;1.00;;
735;SDS011;352;48.626;9.238;2023-04-01T14:25:51;0.70;;;0.70;;
735;SDS011;352;48.626;9.238;2023-04-01T14:28:32;0.60;;;0.60;;
735;SDS011;352;48.626;9.238;2023-04-01T14:31:13;0.80;;;0.60;;
735;SDS011;352;48.626;9.238;2023-04-01T14:33:56;0.60;;;0.60;;
735;SDS011;352;48.626;9.238;2023-04-01T14:36:35;0.63;;;0.63;;
735;SDS011;352;48.626;9.238;2023-04-01T14:39:22;0.60;;;0.60;;
735;SDS011;352;48.626;9.238;2023-04-01T14:42:03;0.83;;;0.83;;
735;SDS011;352;48.626;9.238;2023-04-01T14:47:47;0.50;;;0.50;;
735;SDS011;352;48.626;9.238;2023-04-01T14:50:19;0.50;;;0.50;;
735;SDS011;352;48.626;9.238;2023-04-01T14:52:52;0.70;;;0.70;;
735;SDS011;352;48.626;9.238;2023-04-01T14:55:28;0.90;;;0.70;;
735;SDS011;352;48.626;9.238;2023-04-01T14:58:07;1.53;;;1.00;;
735;SDS011;352;48.626;9.238;2023-04-01T15:00:48;1.47;;;1.07;;
735;SDS011;352;48.626;9.238;2023-04-01T15:03:23;0.80;;;0.77;;
735;SDS011;352;48.626;9.238;2023-04-01T15:05:55;1.07;;;0.97;;
735;SDS011;352;48.626;9.238;2023-04-01T15:08:41;0.97;;;0.70;;
735;SDS011;352;48.626;9.238;2023-04-01T15:11:24;0.73;;;0.67;;
735;SDS011;352;48.626;9.238;2023-04-01T15:17:02;0.70;;;0.70;;
735;SDS011;352;48.626;9.238;2023-04-01T15:19:47;0.70;;;0.70;;
735;SDS011;352;48.626;9.238;2023-04-01T15:22:27;1.10;;;0.70;;
735;SDS011;352;48.626;9.238;2023-04-01T15:25:17;0.67;;;0.67;;
735;SDS011;352;48.626;9.238;2023-04-01T15:27:55;0.70;;;0.70;;
735;SDS011;352;48.626;9.238;2023-04-01T15:30:28;1.50;;;0.63;;
735;SDS011;352;48.626;9.238;2023-04-01T15:33:08;1.90;;;0.70;;
735;SDS011;352;48.626;9.238;2023-04-01T15:35:44;0.70;;;0.70;;
735;SDS011;352;48.626;9.238;2023-04-01T15:38:18;0.70;;;0.67;;
735;SDS011;352;48.626;9.238;2023-04-01T15:40:53;0.70;;;0.70;;
735;SDS011;352;48.626;9.238;2023-04-01T15:43:28;1.57;;;1.13;;
735;SDS011;352;48.626;9.238;2023-04-01T15:46:11;0.70;;;0.70;;
735;SDS011;352;48.626;9.238;2023-04-01T15:48:55;0.90;;;0.90;;
735;SDS011;352;48.626;9.238;2023-04-01T15:51:38;1.20;;;0.90;;
735;SDS011;352;48.626;9.238;2023-04-01T15:54:19;1.00;;;0.90;;
735;SDS011;352;48.626;9.238;2023-04-01T15:56:55;4.40;;;0.90;;
735;SDS011;352;48.626;9.238;2023-04-01T15:59:39;1.30;;;1.20;;
735;SDS011;352;48.626;9.238;2023-04-01T16:02:30;1.77;;;1.00;;
735;SDS011;352;48.626;9.238;2023-04-01T16:05:03;1.00;;;0.90;;
735;SDS011;352;48.626;9.238;2023-04-01T16:07:43;1.17;;;0.93;;
735;SDS011;352;48.626;9.238;2023-04-01T16:10:29;1.03;;;0.70;;
735;SDS011;352;48.626;9.238;2023-04-01T16:13:11;1.20;;;0.90;;
735;SDS011;352;48.626;9.238;2023-04-01T16:15:49;0.80;;;0.80;;
735;SDS011;352;48.626;9.238;2023-04-01T16:18:30;0.80;;;0.73;;
735;SDS011;352;48.626;9.238;2023-04-01T16:21:04;1.37;;;1.27;;
735;SDS011;352;48.626;9.238;2023-04-01T16:23:37;1.43;;;1.17;;
735;SDS011;352;48.626;9.238;2023-04-01T16:26:09;2.50;;;1.13;;
735;SDS011;352;48.626;9.238;2023-04-01T16:28:43;0.90;;;0.80;;
735;SDS011;352;48.626;9.238;2023-04-01T16:31:25;1.60;;;1.50;;
735;SDS011;352;48.626;9.238;2023-04-01T16:33:58;1.60;;;1.50;;
735;SDS011;352;48.626;9.238;2023-04-01T16:36:35;1.30;;;1.20;;
735;SDS011;352;48.626;9.238;2023-04-01T16:39:18;1.60;;;1.27;;
735;SDS011;352;48.626;9.238;2023-04-01T16:41:57;1.13;;;0.90;;
735;SDS011;352;48.626;9.238;2023-04-01T16:44:47;1.80;;;1.30;;
735;SDS011;352;48.626;9.238;2023-04-01T16:47:19;1.37;;;1.20;;
735;SDS011;352;48.626;9.238;2023-04-01T16:49:50;0.93;;;0.90;;
735;SDS011;352;48.626;9.238;2023-04-01T16:52:34;2.40;;;1.63;;
735;SDS011;352;48.626;9.238;2023-04-01T16:55:12;1.60;;;1.50;;
735;SDS011;352;48.626;9.238;2023-04-01T16:57:45;1.27;;;1.00;;
735;SDS011;352;48.626;9.238;2023-04-01T17:00:15;1.27;;;1.17;;
735;SDS011;352;48.626;9.238;2023-04-01T17:02:49;0.80;;;0.80;;
735;SDS011;352;48.626;9.238;2023-04-01T17:05:32;2.93;;;1.80;;
735;SDS011;352;48.626;9.238;2023-04-01T17:08:09;1.83;;;1.63;;
735;SDS011;352;48.626;9.238;2023-04-01T17:10:46;1.20;;;1.10;;
735;SDS011;352;48.626;9.238;2023-04-01T17:13:29;2.17;;;1.70;;
735;SDS011;352;48.626;9.238;2023-04-01T17:16:11;2.30;;;1.30;;
735;SDS011;352;48.626;9.238;2023-04-01T17:18:55;1.90;;;1.80;;
735;SDS011;352;48.626;9.238;2023-04-01T17:21:36;1.30;;;1.20;;
735;SDS011;352;48.626;9.238;2023-04-01T17:24:23;1.20;;;1.10;;
735;SDS011;352;48.626;9.238;2023-04-01T17:26:59;1.47;;;1.37;;
735;SDS011;352;48.626;9.238;2023-04-01T17:29:35;3.50;;;2.80;;
735;SDS011;352;48.626;9.238;2023-04-01T17:32:24;1.67;;;1.50;;
735;SDS011;352;48.626;9.238;2023-04-01T17:35:03;1.93;;;1.20;;
735;SDS011;352;48.626;9.238;2023-04-01T17:37:38;1.40;;;1.20;;
735;SDS011;352;48.626;9.238;2023-04-01T17:40:20;1.30;;;1.20;;
735;SDS011;352;48.626;9.238;2023-04-01T17:42:54;1.30;;;1.20;;
735;SDS011;352;48.626;9.238;2023-04-01T17:45:30;3.13;;;2.90;;
735;SDS011;352;48.626;9.238;2023-04-01T17:48:06;1.63;;;1.53;;
735;SDS011;352;48.626;9.238;2023-04-01T17:50:44;1.40;;;1.03;;
735;SDS011;352;48.626;9.238;2023-04-01T17:53:20;1.70;;;1.60;;
735;SDS011;352;48.626;9.238;2023-04-01T17:56:04;1.37;;;1.27;;
735;SDS011;352;48.626;9.238;2023-04-01T17:58:39;3.37;;;3.10;;
735;SDS011;352;48.626;9.238;2023-04-01T18:01:16;3.17;;;2.97;;
735;SDS011;352;48.626;9.238;2023-04-01T18:03:54;3.10;;;2.80;;